Time;durP1;ratioP1;P1;durP2;ratioP2;P2;SDS_P1;SDS_P2;PMS_P1;PMS_P2;Temp;Humidity;BMP_temperature;BMP_pressure;BME280_temperature;BME280_humidity;BME280_pressure;Samples;Min_cycle;Max_cycle;Signal;HPM_P1;HPM_P2
2022/05/20 00:01:11;;;;;;;5.00;1.88;;;20.20;88.90;;;;;;5071930;28;20524;-78
2022/05/20 00:03:39;;;;;;;2.70;1.58;;;20.20;89.00;;;;;;5075542;28;20052;-78
2022/05/20 00:06:07;;;;;;;5.60;1.90;;;20.20;89.00;;;;;;5031353;28;20044;-79
2022/05/20 00:08:34;;;;;;;3.90;1.52;;;20.10;89.10;;;;;;5072854;28;20056;-78
2022/05/20 00:11:02;;;;;;;3.65;1.58;;;20.10;89.30;;;;;;5056163;28;20123;-78
2022/05/20 00:13:30;;;;;;;3.53;1.30;;;20.10;89.30;;;;;;5040782;28;20379;-78
2022/05/20 00:15:57;;;;;;;9.55;2.17;;;20.00;89.30;;;;;;5040103;28;20040;-79
2022/05/20 00:18:25;;;;;;;8.02;2.58;;;20.00;89.40;;;;;;5051193;28;20056;-78
2022/05/20 00:20:53;;;;;;;2.78;1.48;;;19.90;89.40;;;;;;5053571;28;20071;-78
2022/05/20 00:23:20;;;;;;;4.88;1.77;;;19.90;89.50;;;;;;5070649;28;20043;-78
2022/05/20 00:25:48;;;;;;;3.88;1.48;;;19.80;89.60;;;;;;5070395;28;20503;-78
2022/05/20 00:28:24;;;;;;;3.97;1.88;;;19.80;89.80;;;;;;5037115;28;20485;-78
2022/05/20 00:31:04;;;;;;;;;;;19.80;89.70;;;;;;5071437;28;20049;-78
2022/05/20 00:33:34;;;;;;;3.20;1.52;;;19.70;89.70;;;;;;5036797;28;19924;-78
2022/05/20 00:36:01;;;;;;;4.90;2.10;;;19.60;89.60;;;;;;5052122;28;20098;-78
2022/05/20 00:38:30;;;;;;;6.18;2.30;;;19.60;89.30;;;;;;5090671;28;20043;-79
2022/05/20 00:41:00;;;;;;;5.40;1.70;;;19.50;89.40;;;;;;5053395;28;20101;-77
2022/05/20 00:43:33;;;;;;;3.95;1.80;;;19.40;89.60;;;;;;5072139;28;20048;-78
2022/05/20 00:46:12;;;;;;;4.68;2.33;;;19.40;89.70;;;;;;5053460;28;20040;-78
2022/05/20 00:48:40;;;;;;;6.57;2.20;;;19.30;89.90;;;;;;5054404;28;20036;-78
2022/05/20 00:51:23;;;;;;;4.88;1.95;;;19.30;90.00;;;;;;5054919;28;20047;-78
2022/05/20 00:54:35;;;;;;;5.25;2.20;;;19.30;90.00;;;;;;5072736;28;20040;-78
2022/05/20 00:57:12;;;;;;;6.32;2.03;;;19.20;90.10;;;;;;5028451;28;20055;-78
2022/05/20 00:59:45;;;;;;;5.95;2.17;;;19.20;90.20;;;;;;5054564;28;20048;-78
2022/05/20 01:02:20;;;;;;;5.85;2.95;;;19.20;90.30;;;;;;5071399;28;20074;-79
2022/05/20 01:04:55;;;;;;;4.70;2.10;;;19.20;90.70;;;;;;5070681;28;20052;-78
2022/05/20 01:07:24;;;;;;;3.65;1.77;;;19.30;90.60;;;;;;5069877;28;20141;-78
2022/05/20 01:09:52;;;;;;;4.43;1.75;;;19.30;90.60;;;;;;5051096;28;20048;-78
2022/05/20 01:12:21;;;;;;;2.75;1.52;;;19.30;90.70;;;;;;5051553;28;20040;-78
2022/05/20 01:14:49;;;;;;;12.05;2.30;;;19.30;90.90;;;;;;5036044;28;20522;-78
2022/05/20 01:17:17;;;;;;;3.53;1.88;;;19.30;91.00;;;;;;5035932;28;20052;-77
2022/05/20 01:19:49;;;;;;;5.22;2.40;;;19.20;91.10;;;;;;5069992;28;20040;-78
2022/05/20 01:23:08;;;;;;;5.45;2.40;;;19.20;91.10;;;;;;5052599;28;20037;-77
2022/05/20 01:25:39;;;;;;;5.43;2.78;;;19.10;91.30;;;;;;5030642;28;20422;-78
2022/05/20 01:28:06;;;;;;;4.57;2.70;;;19.10;91.40;;;;;;5035306;28;20075;-77
2022/05/20 01:30:34;;;;;;;3.42;2.22;;;19.10;91.40;;;;;;5035842;28;20064;-78
2022/05/20 01:33:07;;;;;;;4.25;2.30;;;19.10;91.60;;;;;;5055269;28;20131;-77
2022/05/20 01:35:39;;;;;;;5.00;2.10;;;19.00;91.70;;;;;;5052462;28;20723;-77
2022/05/20 01:38:09;;;;;;;1.67;1.50;;;19.00;91.80;;;;;;5035412;28;20052;-78
2022/05/20 01:41:01;;;;;;;3.72;1.92;;;19.00;91.80;;;;;;5052701;28;20084;-76
2022/05/20 01:43:53;;;;;;;5.40;2.35;;;18.90;91.90;;;;;;5052687;28;20037;-77
2022/05/20 01:46:32;;;;;;;4.25;1.67;;;18.90;92.20;;;;;;5052633;28;20498;-78
2022/05/20 01:49:19;;;;;;;4.55;2.53;;;18.80;92.30;;;;;;5052417;28;20491;-77
2022/05/20 01:52:08;;;;;;;2.53;1.70;;;18.80;92.60;;;;;;5035377;28;20098;-79
2022/05/20 01:55:05;;;;;;;4.90;2.15;;;18.80;92.90;;;;;;5035843;28;20041;-77
2022/05/20 01:57:45;;;;;;;;;;;18.90;93.30;;;;;;5036255;28;20048;-77
2022/05/20 02:00:25;;;;;;;3.78;2.05;;;18.90;93.60;;;;;;5035654;28;19973;-77
2022/05/20 02:03:12;;;;;;;3.88;2.05;;;19.00;93.80;;;;;;5050318;28;20048;-77
2022/05/20 02:05:59;;;;;;;4.07;1.98;;;19.00;93.90;;;;;;5035707;28;20057;-77
2022/05/20 02:08:35;;;;;;;3.58;2.65;;;19.00;93.90;;;;;;5052134;28;20051;-77
2022/05/20 02:11:27;;;;;;;3.03;2.17;;;18.90;93.80;;;;;;5019212;28;20148;-77
2022/05/20 02:14:10;;;;;;;3.80;2.47;;;18.90;94.00;;;;;;5051868;28;20055;-77
2022/05/20 02:16:42;;;;;;;6.72;2.53;;;18.90;93.90;;;;;;5069727;28;20045;-77
2022/05/20 02:19:13;;;;;;;3.58;1.75;;;18.90;94.00;;;;;;5052094;28;20119;-77
2022/05/20 02:21:44;;;;;;;4.40;2.03;;;18.90;93.90;;;;;;5035830;28;20048;-77
2022/05/20 02:24:16;;;;;;;4.40;2.45;;;18.80;94.00;;;;;;5052250;28;20036;-77
2022/05/20 02:26:50;;;;;;;4.88;2.30;;;18.80;94.00;;;;;;5056192;28;20052;-76
2022/05/20 02:29:22;;;;;;;8.05;2.42;;;18.80;94.10;;;;;;5039169;28;20099;-76
2022/05/20 02:32:07;;;;;;;4.95;2.28;;;18.80;94.20;;;;;;5055597;28;20517;-77
2022/05/20 02:34:35;;;;;;;3.28;1.98;;;18.70;94.10;;;;;;5038572;28;20063;-76
2022/05/20 02:37:26;;;;;;;7.95;2.33;;;18.70;94.10;;;;;;5055390;28;20048;-77
2022/05/20 02:39:54;;;;;;;3.30;1.80;;;18.70;93.90;;;;;;5038803;28;20056;-77
2022/05/20 02:42:22;;;;;;;5.70;2.63;;;18.60;93.70;;;;;;5055655;28;20048;-77
2022/05/20 02:44:50;;;;;;;3.60;1.60;;;18.70;93.40;;;;;;5055497;28;20044;-77
2022/05/20 02:47:18;;;;;;;5.65;2.10;;;18.60;93.10;;;;;;5055067;28;20096;-77
2022/05/20 02:49:45;;;;;;;3.10;2.03;;;18.60;92.80;;;;;;5073283;28;20437;-77
2022/05/20 02:52:13;;;;;;;3.00;1.60;;;18.60;92.60;;;;;;5055480;28;20503;-77
2022/05/20 02:54:40;;;;;;;3.08;2.10;;;18.60;92.40;;;;;;5069679;28;20134;-77
2022/05/20 02:57:08;;;;;;;3.55;1.70;;;18.60;92.40;;;;;;5075118;28;20051;-77
2022/05/20 03:05:21;;;;;;;3.58;2.00;;;18.60;92.30;;;;;;5022264;28;20082;-77
2022/05/20 03:07:48;;;;;;;4.28;2.47;;;18.60;92.30;;;;;;5054278;28;20048;-77
2022/05/20 03:10:16;;;;;;;4.85;2.58;;;18.60;92.30;;;;;;5054976;28;20409;-78
2022/05/20 03:12:44;;;;;;;3.15;1.80;;;18.60;92.30;;;;;;5055154;28;20041;-77
2022/05/20 03:15:13;;;;;;;2.95;1.70;;;18.50;92.20;;;;;;5038293;28;20143;-75
2022/05/20 03:17:40;;;;;;;4.45;2.38;;;18.50;92.30;;;;;;5021711;28;20445;-76
2022/05/20 03:20:09;;;;;;;5.32;1.83;;;18.50;92.30;;;;;;5072341;28;20566;-77
2022/05/20 03:22:37;;;;;;;5.63;2.38;;;18.40;92.30;;;;;;5021502;28;20070;-77
2022/05/20 03:25:06;;;;;;;4.97;2.05;;;18.50;92.30;;;;;;5037813;28;20539;-75
2022/05/20 03:27:34;;;;;;;4.57;1.95;;;18.40;92.20;;;;;;5054877;28;20102;-76
2022/05/20 03:30:02;;;;;;;4.38;1.77;;;18.40;92.20;;;;;;5072105;28;20056;-77
2022/05/20 03:32:29;;;;;;;4.07;2.13;;;18.30;92.10;;;;;;5072406;28;20091;-77
2022/05/20 03:34:57;;;;;;;3.05;1.80;;;18.30;92.10;;;;;;5037477;28;20080;-77
2022/05/20 03:37:25;;;;;;;4.50;2.13;;;18.30;92.10;;;;;;5053989;28;20047;-76
2022/05/20 03:39:55;;;;;;;3.90;1.70;;;18.30;92.20;;;;;;5037879;28;20624;-77
2022/05/20 03:42:24;;;;;;;3.20;1.70;;;18.30;92.10;;;;;;5022645;28;20047;-78
2022/05/20 03:44:52;;;;;;;4.55;1.67;;;18.30;92.20;;;;;;5071912;28;20045;-78
2022/05/20 03:47:20;;;;;;;6.18;2.03;;;18.30;92.20;;;;;;5054620;28;20040;-78
2022/05/20 03:49:48;;;;;;;6.05;4.60;;;18.30;92.00;;;;;;5054129;28;20054;-78
2022/05/20 03:52:16;;;;;;;4.75;3.33;;;18.40;91.90;;;;;;5037754;28;20057;-78
2022/05/20 03:54:44;;;;;;;3.40;1.83;;;18.50;91.80;;;;;;5053708;28;20090;-78
2022/05/20 03:57:12;;;;;;;4.70;1.55;;;18.60;91.70;;;;;;5021132;28;20047;-77
2022/05/20 03:59:40;;;;;;;3.05;1.30;;;18.60;91.50;;;;;;5037192;28;20052;-78
2022/05/20 04:02:10;;;;;;;3.95;1.92;;;18.70;91.50;;;;;;5020304;28;20110;-78
2022/05/20 04:04:46;;;;;;;3.55;1.83;;;18.70;91.40;;;;;;5053170;28;20054;-79
2022/05/20 04:07:25;;;;;;;6.50;2.10;;;18.90;91.40;;;;;;5053719;28;20064;-78
2022/05/20 04:09:53;;;;;;;4.70;2.22;;;19.00;91.30;;;;;;5037022;28;20282;-79
2022/05/20 04:12:34;;;;;;;8.02;1.70;;;19.10;91.20;;;;;;5053688;28;20076;-78
2022/05/20 04:15:03;;;;;;;4.10;2.30;;;19.20;91.10;;;;;;5053509;28;20086;-78
2022/05/20 04:17:30;;;;;;;4.90;1.92;;;19.30;91.00;;;;;;5037133;28;20444;-78
2022/05/20 04:19:58;;;;;;;2.90;1.52;;;19.40;90.90;;;;;;5071181;28;20052;-78
2022/05/20 04:22:32;;;;;;;4.70;2.42;;;19.50;90.80;;;;;;5037075;28;20053;-80
2022/05/20 04:25:00;;;;;;;2.97;1.83;;;19.60;90.70;;;;;;5020410;28;20059;-78
2022/05/20 04:27:27;;;;;;;4.30;1.60;;;19.70;90.50;;;;;;5020358;28;20056;-79
2022/05/20 04:29:56;;;;;;;4.80;1.92;;;19.90;90.30;;;;;;5053106;28;20136;-79
2022/05/20 04:32:24;;;;;;;2.45;1.65;;;19.90;90.10;;;;;;5070962;28;20048;-79
2022/05/20 04:34:52;;;;;;;4.82;1.77;;;20.10;89.90;;;;;;5062354;28;20042;-78
2022/05/20 04:37:23;;;;;;;6.47;2.05;;;20.20;89.70;;;;;;5037158;28;20032;-79
2022/05/20 04:39:50;;;;;;;5.13;1.80;;;20.30;89.30;;;;;;5036719;28;20101;-79
2022/05/20 04:47:51;;;;;;;7.13;3.10;;;20.70;88.40;;;;;;5070086;28;20052;-79
2022/05/20 04:50:18;;;;;;;4.35;3.20;;;20.80;88.20;;;;;;5053243;28;20136;-80
2022/05/20 04:52:46;;;;;;;12.10;3.63;;;21.00;88.00;;;;;;5036353;28;20044;-79
2022/05/20 04:55:14;;;;;;;4.35;2.42;;;21.10;87.80;;;;;;5019722;28;20049;-79
2022/05/20 04:57:50;;;;;;;4.22;2.03;;;21.30;87.10;;;;;;5052550;28;20443;-79
2022/05/20 05:00:21;;;;;;;5.65;2.30;;;21.40;86.80;;;;;;5052960;28;20119;-79
2022/05/20 05:02:49;;;;;;;5.40;1.50;;;21.50;86.40;;;;;;5052664;28;20075;-79
2022/05/20 05:05:21;;;;;;;4.00;2.08;;;21.70;85.90;;;;;;5052723;28;20041;-78
2022/05/20 05:07:50;;;;;;;5.13;1.63;;;21.80;85.00;;;;;;5035312;28;20052;-79
2022/05/20 05:10:22;;;;;;;3.70;1.40;;;21.90;84.60;;;;;;5053119;28;20083;-79
2022/05/20 05:12:50;;;;;;;3.58;1.77;;;22.00;84.10;;;;;;5036492;28;20052;-79
2022/05/20 05:15:19;;;;;;;2.53;1.30;;;22.10;83.70;;;;;;5036443;28;20048;-79
2022/05/20 05:20:33;;;;;;;2.85;1.63;;;22.40;82.20;;;;;;5052504;28;20413;-79
2022/05/20 05:23:02;;;;;;;4.28;2.03;;;22.50;81.50;;;;;;5070458;28;20044;-79
2022/05/20 05:25:32;;;;;;;3.88;1.92;;;22.60;80.80;;;;;;5019488;28;20054;-79
2022/05/20 05:28:01;;;;;;;4.47;1.88;;;22.70;80.00;;;;;;5052685;28;20170;-79
2022/05/20 05:30:28;;;;;;;2.38;1.60;;;22.90;79.30;;;;;;5052189;28;20398;-79
2022/05/20 05:32:56;;;;;;;6.00;1.77;;;23.00;78.80;;;;;;5052402;28;20048;-79
2022/05/20 05:35:27;;;;;;;3.03;1.40;;;23.10;77.80;;;;;;5050482;28;20044;-79
2022/05/20 05:37:55;;;;;;;9.88;2.40;;;23.20;77.10;;;;;;5090245;28;20051;-79
2022/05/20 05:40:28;;;;;;;3.80;1.70;;;23.20;75.80;;;;;;5055481;28;20143;-81
2022/05/20 05:42:58;;;;;;;8.30;2.28;;;23.20;76.00;;;;;;5038181;28;20060;-79
2022/05/20 05:45:29;;;;;;;2.03;1.52;;;23.40;75.60;;;;;;5055151;28;20127;-79
2022/05/20 05:48:03;;;;;;;3.75;1.70;;;23.50;75.40;;;;;;5055637;28;20047;-79
2022/05/20 05:50:33;;;;;;;5.35;1.40;;;23.70;74.80;;;;;;5056124;28;20082;-79
2022/05/20 05:53:07;;;;;;;4.57;1.90;;;23.80;74.90;;;;;;5055767;28;20072;-80
2022/05/20 05:55:35;;;;;;;4.43;1.50;;;23.90;74.80;;;;;;5072463;28;20044;-79
2022/05/20 05:58:03;;;;;;;5.47;2.30;;;24.10;74.80;;;;;;5056133;28;20135;-79
2022/05/20 06:00:31;;;;;;;4.05;1.90;;;24.20;74.50;;;;;;5075954;28;20421;-79
2022/05/20 06:02:59;;;;;;;3.90;1.98;;;24.30;74.10;;;;;;5075326;28;20052;-79
2022/05/20 06:05:27;;;;;;;4.55;1.60;;;24.40;74.10;;;;;;5075856;28;20070;-79
2022/05/20 06:07:54;;;;;;;5.75;1.77;;;24.50;74.00;;;;;;5075827;28;20444;-79
2022/05/20 06:10:22;;;;;;;4.40;1.70;;;24.50;73.80;;;;;;5093768;28;20498;-79
2022/05/20 06:12:50;;;;;;;10.57;2.80;;;24.60;73.40;;;;;;5042681;28;20048;-79
2022/05/20 06:15:22;;;;;;;6.78;2.03;;;24.80;73.80;;;;;;5075957;28;20054;-79
2022/05/20 06:17:51;;;;;;;5.35;1.92;;;24.90;73.40;;;;;;5093578;28;20055;-79
2022/05/20 06:20:20;;;;;;;4.18;2.10;;;25.10;73.10;;;;;;5042470;28;20067;-79
2022/05/20 06:22:49;;;;;;;4.18;1.90;;;25.10;72.90;;;;;;5075676;28;20044;-78
2022/05/20 06:25:17;;;;;;;4.25;1.50;;;25.20;72.70;;;;;;5075420;28;20044;-79
2022/05/20 06:27:46;;;;;;;5.53;2.30;;;25.30;71.60;;;;;;5058734;28;20052;-79
2022/05/20 06:30:18;;;;;;;5.05;1.60;;;25.40;70.80;;;;;;5058951;28;20040;-79
2022/05/20 06:32:46;;;;;;;2.45;1.50;;;25.60;70.60;;;;;;5092158;28;20144;-79
2022/05/20 06:40:49;;;;;;;4.60;2.13;;;25.80;65.60;;;;;;5075276;28;20063;-79
2022/05/20 06:43:19;;;;;;;5.15;1.40;;;26.00;65.90;;;;;;5058405;28;20040;-79
2022/05/20 06:45:56;;;;;;;4.43;1.73;;;26.10;65.30;;;;;;5075013;28;20105;-79
2022/05/20 06:48:41;;;;;;;3.22;1.50;;;26.20;65.30;;;;;;5044013;28;20517;-79
2022/05/20 06:51:11;;;;;;;3.22;1.30;;;26.30;64.80;;;;;;5075232;28;20496;-79
2022/05/20 06:53:39;;;;;;;3.28;1.75;;;26.30;64.70;;;;;;5058886;28;20054;-79
2022/05/20 06:56:07;;;;;;;1.80;1.20;;;26.40;63.40;;;;;;5075129;28;20581;-79
2022/05/20 06:58:34;;;;;;;1.98;1.10;;;26.40;62.50;;;;;;5058195;28;20459;-79
2022/05/20 07:01:03;;;;;;;3.33;1.50;;;26.50;61.50;;;;;;5074590;28;20040;-80
2022/05/20 07:03:31;;;;;;;6.45;2.17;;;26.50;61.00;;;;;;5075100;28;20036;-79
2022/05/20 07:05:59;;;;;;;3.03;1.30;;;26.60;60.20;;;;;;5074676;28;20126;-80
2022/05/20 07:08:26;;;;;;;2.83;1.80;;;26.60;59.60;;;;;;5058683;28;20044;-79
2022/05/20 07:10:54;;;;;;;12.18;1.70;;;26.70;60.40;;;;;;5074321;28;20036;-79
2022/05/20 07:13:36;;;;;;;2.67;1.30;;;26.70;60.90;;;;;;5074916;28;20044;-80
2022/05/20 07:16:04;;;;;;;5.57;1.70;;;26.70;60.10;;;;;;5092678;28;20369;-80
2022/05/20 07:18:33;;;;;;;2.80;1.38;;;26.80;59.70;;;;;;5090847;28;20040;-79
2022/05/20 07:21:02;;;;;;;3.58;1.50;;;26.80;59.80;;;;;;5092663;28;20047;-79
2022/05/20 07:23:31;;;;;;;2.78;1.40;;;26.90;60.10;;;;;;5092458;28;20444;-79
2022/05/20 07:26:00;;;;;;;2.92;1.30;;;26.90;59.80;;;;;;5040713;28;20078;-79
2022/05/20 07:28:29;;;;;;;1.77;1.10;;;26.90;60.70;;;;;;5075023;28;20048;-79
2022/05/20 07:30:57;;;;;;;2.58;1.45;;;27.00;61.70;;;;;;5058290;28;20063;-79
2022/05/20 07:33:25;;;;;;;2.50;1.30;;;27.10;61.30;;;;;;5057832;28;20044;-79
2022/05/20 07:35:52;;;;;;;2.28;1.50;;;27.20;61.00;;;;;;5057564;28;20043;-79
2022/05/20 07:38:20;;;;;;;3.95;1.15;;;27.20;60.00;;;;;;5074194;28;20084;-79
2022/05/20 07:40:48;;;;;;;4.22;1.60;;;27.20;59.30;;;;;;5074268;28;20044;-80
2022/05/20 07:43:15;;;;;;;2.90;1.75;;;27.30;59.30;;;;;;5074223;28;20071;-79
2022/05/20 07:45:43;;;;;;;3.78;1.55;;;27.40;60.60;;;;;;5057650;28;20047;-79
2022/05/20 07:48:11;;;;;;;2.90;1.50;;;27.40;60.70;;;;;;5041283;28;20142;-79
2022/05/20 07:50:45;;;;;;;5.43;1.67;;;27.40;59.00;;;;;;5057804;28;20489;-80
2022/05/20 07:53:20;;;;;;;3.00;1.55;;;27.50;58.60;;;;;;5057059;28;20119;-79
2022/05/20 07:55:57;;;;;;;2.72;1.38;;;27.50;59.00;;;;;;5073221;28;20048;-79
2022/05/20 07:58:30;;;;;;;2.58;1.20;;;27.60;57.50;;;;;;5073849;28;20406;-78
2022/05/20 08:01:12;;;;;;;4.40;1.40;;;27.50;57.70;;;;;;5059288;28;20402;-79
2022/05/20 08:06:26;;;;;;;5.43;1.90;;;27.70;57.30;;;;;;5091908;28;20046;-79
2022/05/20 08:08:54;;;;;;;2.25;1.45;;;27.70;56.80;;;;;;5057178;28;20048;-79
2022/05/20 08:11:22;;;;;;;2.42;1.20;;;27.80;56.80;;;;;;5073508;28;20044;-80
2022/05/20 08:13:50;;;;;;;2.85;1.98;;;27.90;57.40;;;;;;5071947;28;20081;-79
2022/05/20 08:16:18;;;;;;;3.70;1.38;;;27.90;57.80;;;;;;5057226;28;20089;-79
2022/05/20 08:18:46;;;;;;;6.00;1.77;;;27.80;57.00;;;;;;5073995;28;20039;-79
2022/05/20 08:21:14;;;;;;;3.30;1.20;;;27.90;56.80;;;;;;5072855;28;20036;-79
2022/05/20 08:23:44;;;;;;;2.28;1.30;;;27.90;57.20;;;;;;5056490;28;20065;-80
2022/05/20 08:26:16;;;;;;;5.20;1.67;;;28.00;57.10;;;;;;5040392;28;20040;-79
2022/05/20 08:28:46;;;;;;;2.00;1.33;;;27.90;55.90;;;;;;5056215;28;20055;-80
2022/05/20 08:31:15;;;;;;;3.13;1.70;;;27.90;56.20;;;;;;5073506;28;20044;-80
2022/05/20 08:33:44;;;;;;;2.70;1.73;;;27.90;55.80;;;;;;5040610;28;20516;-80
2022/05/20 08:36:12;;;;;;;3.95;1.80;;;28.00;54.50;;;;;;5056870;28;20047;-79
2022/05/20 08:38:40;;;;;;;2.72;1.20;;;28.00;53.40;;;;;;5072880;28;20048;-80
2022/05/20 08:41:16;;;;;;;2.45;1.25;;;28.00;52.50;;;;;;5091232;28;20040;-80
2022/05/20 08:43:44;;;;;;;5.50;2.22;;;28.10;52.30;;;;;;5073060;28;20040;-79
2022/05/20 08:46:13;;;;;;;2.78;1.30;;;28.20;53.00;;;;;;5072840;28;20102;-79
2022/05/20 08:48:43;;;;;;;2.47;1.30;;;28.30;53.00;;;;;;5073178;28;20121;-79
2022/05/20 08:51:11;;;;;;;5.88;1.85;;;28.40;52.40;;;;;;5056410;28;20048;-80
2022/05/20 08:53:43;;;;;;;2.67;1.10;;;28.30;52.10;;;;;;5056403;28;20035;-78
2022/05/20 08:56:15;;;;;;;3.42;1.40;;;28.20;51.10;;;;;;5073430;28;20051;-78
2022/05/20 08:59:01;;;;;;;2.97;1.33;;;28.10;51.40;;;;;;5073274;28;20044;-78
2022/05/20 09:01:44;;;;;;;2.08;1.10;;;28.10;50.30;;;;;;5056265;28;20078;-78
2022/05/20 09:04:15;;;;;;;7.25;1.35;;;28.10;50.70;;;;;;5056122;28;20112;-78
2022/05/20 09:07:04;;;;;;;4.13;1.20;;;28.10;50.30;;;;;;5054110;28;21235;-78
2022/05/20 09:09:46;;;;;;;2.92;1.17;;;28.20;49.80;;;;;;5070636;28;20557;-79
2022/05/20 09:12:43;;;;;;;2.00;0.93;;;28.10;48.30;;;;;;5020030;28;20449;-79
2022/05/20 09:18:29;;;;;;;1.70;1.20;;;28.20;48.30;;;;;;5070342;28;20041;-79
2022/05/20 09:20:57;;;;;;;3.40;1.20;;;28.10;48.30;;;;;;5052343;28;20059;-80
2022/05/20 09:23:26;;;;;;;2.10;1.17;;;28.20;47.60;;;;;;5036361;28;20049;-79
2022/05/20 09:26:08;;;;;;;1.98;1.10;;;28.30;48.40;;;;;;5052454;28;20611;-79
2022/05/20 09:28:44;;;;;;;2.28;1.15;;;28.40;48.90;;;;;;5019534;28;20059;-80
2022/05/20 09:31:16;;;;;;;;;;;28.40;48.60;;;;;;5070463;28;20052;-82
2022/05/20 09:34:09;;;;;;;2.30;1.30;;;28.40;48.50;;;;;;5052231;28;19985;-79
2022/05/20 09:36:56;;;;;;;2.58;1.23;;;28.50;47.50;;;;;;5070697;28;20036;-79
2022/05/20 09:39:29;;;;;;;2.95;1.52;;;28.40;47.00;;;;;;5035774;28;20048;-80
2022/05/20 09:42:07;;;;;;;1.77;1.05;;;28.40;46.80;;;;;;5052292;28;20048;-80
2022/05/20 09:44:42;;;;;;;5.28;1.48;;;28.50;47.40;;;;;;5036276;28;20055;-80
2022/05/20 09:47:28;;;;;;;2.60;1.50;;;28.40;47.60;;;;;;5053100;28;20094;-81
2022/05/20 09:50:33;;;;;;;1.85;1.23;;;28.40;48.70;;;;;;5052515;28;20533;-80
2022/05/20 09:53:08;;;;;;;3.80;2.33;;;28.40;47.20;;;;;;5019553;28;20059;-80
2022/05/20 09:55:45;;;;;;;4.50;1.45;;;28.50;48.70;;;;;;5035812;28;20080;-80
2022/05/20 09:58:17;;;;;;;2.83;1.23;;;28.60;47.30;;;;;;5069777;28;20071;-80
2022/05/20 10:01:05;;;;;;;4.43;1.20;;;28.60;48.10;;;;;;5035356;28;20098;-79
2022/05/20 10:03:57;;;;;;;3.17;1.20;;;28.70;49.30;;;;;;5052187;28;20048;-80
2022/05/20 10:06:39;;;;;;;3.20;1.30;;;28.70;47.90;;;;;;5057409;28;20155;-80
2022/05/20 10:09:27;;;;;;;2.50;1.50;;;28.60;48.00;;;;;;5051443;28;20063;-80
2022/05/20 10:12:06;;;;;;;4.10;1.75;;;28.50;47.50;;;;;;5050955;28;20433;-80
2022/05/20 10:14:56;;;;;;;3.97;1.92;;;28.60;48.70;;;;;;5068588;28;20173;-80
2022/05/20 10:17:42;;;;;;;2.40;1.40;;;28.60;48.90;;;;;;5068235;28;20156;-80
2022/05/20 10:20:25;;;;;;;3.22;1.52;;;28.60;48.70;;;;;;5051396;28;20494;-80
2022/05/20 10:23:29;;;;;;;2.30;1.08;;;28.60;49.60;;;;;;5051256;28;20040;-79
2022/05/20 10:26:06;;;;;;;4.05;1.90;;;28.70;49.50;;;;;;5012582;28;20053;-80
2022/05/20 10:34:59;;;;;;;2.65;1.50;;;28.40;47.50;;;;;;5051108;28;20056;-79
2022/05/20 10:38:01;;;;;;;2.42;1.45;;;28.40;48.80;;;;;;5067660;28;20067;-80
2022/05/20 10:40:43;;;;;;;2.63;1.15;;;28.40;48.90;;;;;;5041849;28;20406;-80
2022/05/20 10:49:39;;;;;;;2.28;1.67;;;28.20;49.40;;;;;;5054344;28;20110;-80
2022/05/20 10:52:09;;;;;;;3.13;1.60;;;28.30;48.60;;;;;;5037600;28;20075;-80
2022/05/20 10:54:56;;;;;;;4.68;1.45;;;28.30;49.40;;;;;;5071701;28;20048;-80
2022/05/20 10:57:23;;;;;;;5.05;1.63;;;28.30;48.60;;;;;;5054244;28;20056;-80
2022/05/20 11:00:13;;;;;;;4.63;1.70;;;28.40;47.30;;;;;;5041260;28;20070;-80
2022/05/20 11:03:02;;;;;;;4.18;1.38;;;28.30;48.10;;;;;;5054450;28;20114;-80
2022/05/20 11:05:52;;;;;;;2.95;1.20;;;28.40;49.30;;;;;;5072370;28;20561;-81
2022/05/20 11:08:31;;;;;;;3.30;1.80;;;28.40;49.40;;;;;;5054287;28;20500;-81
2022/05/20 11:11:36;;;;;;;4.05;1.50;;;28.30;49.20;;;;;;5054101;28;20056;-80
2022/05/20 11:14:22;;;;;;;1.77;1.30;;;28.30;49.60;;;;;;5053750;28;20147;-80
2022/05/20 11:17:28;;;;;;;2.60;1.15;;;28.20;49.20;;;;;;5072020;28;20397;-81
2022/05/20 11:20:07;;;;;;;3.88;1.65;;;28.30;47.20;;;;;;5037341;28;20127;-79
2022/05/20 11:23:01;;;;;;;3.25;1.35;;;28.30;46.90;;;;;;5054417;28;20052;-79
2022/05/20 11:25:54;;;;;;;4.18;1.63;;;28.30;47.60;;;;;;5054379;28;20063;-79
2022/05/20 11:28:44;;;;;;;3.50;1.85;;;28.40;47.40;;;;;;5072826;28;20048;-82
2022/05/20 11:31:23;;;;;;;3.60;2.03;;;28.40;47.60;;;;;;5047501;28;20053;-80
2022/05/20 11:34:00;;;;;;;4.55;2.00;;;28.40;46.30;;;;;;5031698;28;20756;-80
2022/05/20 11:36:55;;;;;;;3.50;2.47;;;28.30;46.00;;;;;;4999304;28;20059;-81
2022/05/20 11:39:41;;;;;;;6.00;2.50;;;28.30;46.60;;;;;;5015299;28;20088;-79
2022/05/20 11:42:11;;;;;;;7.50;2.10;;;28.20;45.40;;;;;;5031676;28;20038;-80
2022/05/20 11:45:10;;;;;;;5.55;3.30;;;28.30;46.40;;;;;;5032138;28;20045;-80
2022/05/20 11:47:47;;;;;;;6.82;4.65;;;28.20;47.00;;;;;;5014481;28;20053;-79
2022/05/20 11:50:34;;;;;;;8.85;4.60;;;28.20;46.70;;;;;;4999302;28;20068;-79
2022/05/20 11:53:13;;;;;;;9.63;4.68;;;28.10;45.80;;;;;;5035949;28;20045;-79
2022/05/20 11:56:09;;;;;;;11.75;6.15;;;28.10;46.90;;;;;;5034240;28;20529;-80
2022/05/20 11:58:46;;;;;;;8.52;5.65;;;28.00;47.10;;;;;;5008805;28;20041;-80
2022/05/20 12:01:15;;;;;;;8.13;5.53;;;28.00;46.30;;;;;;5034657;28;20053;-80
2022/05/20 12:06:32;;;;;;;13.52;8.57;;;27.90;46.60;;;;;;5051832;28;20045;-80
2022/05/20 12:09:03;;;;;;;17.60;12.15;;;27.90;46.60;;;;;;5035547;28;20620;-80
2022/05/20 12:11:37;;;;;;;6.25;3.20;;;27.90;46.50;;;;;;5034975;28;20055;-80
2022/05/20 12:14:09;;;;;;;9.52;6.55;;;27.90;46.60;;;;;;5017785;28;20415;-79
2022/05/20 12:16:59;;;;;;;7.47;4.22;;;27.80;45.80;;;;;;5033526;28;20049;-82
2022/05/20 12:25:39;;;;;;;8.23;4.55;;;27.90;46.70;;;;;;5032112;28;20095;-81
2022/05/20 12:28:10;;;;;;;8.57;4.57;;;27.80;47.10;;;;;;5053058;28;20049;-74
2022/05/20 12:30:41;;;;;;;5.88;3.22;;;27.90;47.90;;;;;;5029765;28;20057;-75
2022/05/20 12:33:27;;;;;;;5.32;3.28;;;27.80;47.10;;;;;;5025553;28;20060;-75
2022/05/20 12:36:27;;;;;;;8.10;4.05;;;27.80;47.10;;;;;;5029955;28;20087;-76
2022/05/20 12:39:08;;;;;;;6.07;4.30;;;27.80;47.10;;;;;;5035342;28;20521;-73
2022/05/20 12:41:43;;;;;;;9.23;5.15;;;27.70;47.00;;;;;;5032008;28;20442;-74
2022/05/20 12:44:17;;;;;;;6.60;4.18;;;27.70;47.00;;;;;;5037098;28;20045;-74
2022/05/20 12:46:52;;;;;;;10.25;5.00;;;27.70;46.50;;;;;;5032682;28;20049;-74
2022/05/20 12:49:22;;;;;;;5.50;3.85;;;27.70;47.20;;;;;;5035152;28;20045;-74
2022/05/20 12:51:52;;;;;;;10.90;6.45;;;27.70;48.50;;;;;;5045730;28;20048;-74
2022/05/20 12:54:25;;;;;;;8.57;6.40;;;27.60;47.40;;;;;;5017851;28;20053;-74
2022/05/20 12:57:06;;;;;;;9.60;6.93;;;27.60;47.70;;;;;;5011255;28;20061;-75
2022/05/20 12:59:35;;;;;;;8.07;4.78;;;27.70;47.70;;;;;;5016306;28;20564;-74
2022/05/20 13:02:14;;;;;;;5.78;3.67;;;27.60;47.10;;;;;;5028125;28;20088;-74
2022/05/20 13:05:16;;;;;;;7.63;5.47;;;27.70;47.60;;;;;;5045224;28;20069;-74
2022/05/20 13:07:45;;;;;;;9.52;5.18;;;27.70;48.20;;;;;;5024754;28;20049;-75
2022/05/20 13:10:35;;;;;;;11.70;7.30;;;27.60;47.70;;;;;;5034481;28;20396;-76
2022/05/20 13:13:09;;;;;;;11.13;6.70;;;27.60;46.90;;;;;;5018396;28;20525;-76
2022/05/20 13:15:46;;;;;;;9.43;6.03;;;27.60;46.60;;;;;;5048857;28;20120;-74
2022/05/20 13:18:22;;;;;;;9.38;5.68;;;27.60;46.60;;;;;;5043154;28;20037;-75
2022/05/20 13:20:55;;;;;;;7.20;4.32;;;27.60;47.20;;;;;;5029381;28;20045;-74
2022/05/20 13:23:27;;;;;;;7.53;4.55;;;27.50;46.90;;;;;;5013237;28;20684;-74
2022/05/20 13:25:56;;;;;;;7.32;3.30;;;27.50;47.40;;;;;;5032314;28;20056;-76
2022/05/20 13:28:34;;;;;;;8.52;6.72;;;27.50;47.40;;;;;;5025422;28;20041;-76
2022/05/20 13:31:06;;;;;;;7.30;4.78;;;27.50;47.40;;;;;;5016978;28;20041;-74
2022/05/20 13:33:36;;;;;;;4.30;2.92;;;27.50;46.90;;;;;;5062567;28;20522;-73
2022/05/20 13:36:06;;;;;;;7.45;5.68;;;27.50;47.00;;;;;;5035173;28;20048;-73
2022/05/20 13:38:41;;;;;;;8.27;5.13;;;27.50;47.00;;;;;;5053783;28;20049;-75
2022/05/20 13:41:10;;;;;;;5.55;3.53;;;27.50;47.90;;;;;;5072862;28;20130;-74
2022/05/20 13:43:40;;;;;;;7.35;5.20;;;27.50;48.20;;;;;;5063756;28;20060;-74
2022/05/20 13:49:15;;;;;;;9.48;4.82;;;27.40;47.60;;;;;;5054267;28;20509;-75
2022/05/20 13:52:00;;;;;;;6.07;4.80;;;27.30;47.80;;;;;;5051639;28;20143;-74
2022/05/20 13:54:33;;;;;;;8.15;4.90;;;27.30;48.70;;;;;;5058991;28;20052;-75
2022/05/20 13:57:04;;;;;;;7.35;3.40;;;27.30;49.30;;;;;;5085399;28;20036;-75
2022/05/20 13:59:36;;;;;;;5.15;3.03;;;27.30;49.10;;;;;;5051776;28;20112;-74
2022/05/20 14:02:09;;;;;;;5.90;3.20;;;27.40;49.20;;;;;;5034676;28;20057;-75
2022/05/20 14:04:46;;;;;;;7.28;3.65;;;27.30;48.90;;;;;;5069578;28;20041;-74
2022/05/20 14:07:24;;;;;;;3.85;2.35;;;27.20;47.70;;;;;;5052680;28;20056;-74
2022/05/20 14:09:58;;;;;;;6.30;2.47;;;27.20;49.20;;;;;;5035285;28;20055;-76
2022/05/20 14:12:32;;;;;;;3.22;2.10;;;27.20;49.70;;;;;;5019352;28;20056;-75
2022/05/20 14:15:06;;;;;;;;;;;27.20;49.00;;;;;;5052303;28;20528;-73